Time;durP1;ratioP1;P1;durP2;ratioP2;P2;SDS_P1;SDS_P2;PMS_P1;PMS_P2;Temp;Humidity;BMP_temperature;BMP_pressure;BME280_temperature;BME280_humidity;BME280_pressure;Samples;Min_cycle;Max_cycle;Signal;HPM_P1;HPM_P2
2022/06/06 00:00:48;;;;;;;0.50;0.50;;;;;;;;;;6240490;23;20217;-90
2022/06/06 00:03:54;;;;;;;0.20;0.20;;;;;;;;;;6241777;23;20490;-90
2022/06/06 00:07:00;;;;;;;0.30;0.30;;;;;;;;;;6242404;22;20167;-87
2022/06/06 00:10:06;;;;;;;0.30;0.30;;;;;;;;;;6244293;23;20166;-88
2022/06/06 00:13:17;;;;;;;0.30;0.30;;;;;;;;;;6242411;23;20174;-90
2022/06/06 00:16:22;;;;;;;0.30;0.30;;;;;;;;;;6243354;23;20158;-91
2022/06/06 00:19:27;;;;;;;0.30;0.30;;;;;;;;;;6242469;23;20170;-89
2022/06/06 00:22:33;;;;;;;0.40;0.40;;;;;;;;;;6241468;22;20170;-89
2022/06/06 00:25:38;;;;;;;0.90;0.60;;;;;;;;;;6241880;22;20211;-89
2022/06/06 00:28:45;;;;;;;1.75;1.20;;;;;;;;;;6243414;22;20166;-89
2022/06/06 00:35:16;;;;;;;0.22;0.22;;;;;;;;;;6242423;23;20167;-89
2022/06/06 00:38:22;;;;;;;0.30;0.30;;;;;;;;;;6241708;22;20223;-90
2022/06/06 00:41:27;;;;;;;1.75;0.85;;;;;;;;;;6260602;22;20235;-89
2022/06/06 00:44:39;;;;;;;0.30;0.30;;;;;;;;;;6242916;22;20235;-90
2022/06/06 00:47:46;;;;;;;1.23;0.88;;;;;;;;;;6259643;23;20170;-90
2022/06/06 00:50:59;;;;;;;0.30;0.30;;;;;;;;;;6241101;23;20198;-91
2022/06/06 00:54:06;;;;;;;0.40;0.40;;;;;;;;;;6242106;22;20158;-89
2022/06/06 00:57:14;;;;;;;0.30;0.30;;;;;;;;;;6240623;22;20161;-90
2022/06/06 01:00:22;;;;;;;0.40;0.40;;;;;;;;;;6241995;23;20190;-89
2022/06/06 01:03:28;;;;;;;0.30;0.30;;;;;;;;;;6242852;23;20182;-89
2022/06/06 01:06:34;;;;;;;0.30;0.30;;;;;;;;;;6241518;23;20221;-90
2022/06/06 01:09:40;;;;;;;1.95;0.75;;;;;;;;;;6239991;23;20227;-89
2022/06/06 01:12:48;;;;;;;0.30;0.30;;;;;;;;;;6241549;22;20213;-90
2022/06/06 01:16:04;;;;;;;0.68;0.52;;;;;;;;;;6240008;22;20222;-89
2022/06/06 01:19:40;;;;;;;4.90;1.15;;;;;;;;;;6241548;23;20241;-89
2022/06/06 01:23:02;;;;;;;0.43;0.43;;;;;;;;;;6149960;23;20547;-90
2022/06/06 01:26:18;;;;;;;2.15;0.70;;;;;;;;;;6242597;22;20179;-89
2022/06/06 01:29:26;;;;;;;0.22;0.22;;;;;;;;;;6241667;23;20174;-90
2022/06/06 01:32:36;;;;;;;0.50;0.50;;;;;;;;;;6241163;23;20195;-89
2022/06/06 01:35:43;;;;;;;14.00;1.15;;;;;;;;;;6240361;23;20162;-89
2022/06/06 01:38:49;;;;;;;0.85;0.85;;;;;;;;;;6241203;22;20186;-90
2022/06/06 01:42:07;;;;;;;0.30;0.30;;;;;;;;;;6240702;22;20166;-89
2022/06/06 01:45:17;;;;;;;0.30;0.30;;;;;;;;;;6241108;23;20243;-89
2022/06/06 01:48:24;;;;;;;0.43;0.43;;;;;;;;;;6240972;23;20170;-89
2022/06/06 01:51:31;;;;;;;0.30;0.30;;;;;;;;;;6239852;23;20194;-89
2022/06/06 01:54:36;;;;;;;0.30;0.30;;;;;;;;;;6241187;23;20149;-88
2022/06/06 01:57:42;;;;;;;0.57;0.57;;;;;;;;;;6241460;22;20205;-88
2022/06/06 02:00:49;;;;;;;0.38;0.38;;;;;;;;;;6241415;23;20604;-88
2022/06/06 02:03:54;;;;;;;0.70;0.70;;;;;;;;;;6242731;23;20162;-90
2022/06/06 02:07:00;;;;;;;0.77;0.77;;;;;;;;;;6242450;23;20150;-90
2022/06/06 02:10:08;;;;;;;1.35;0.73;;;;;;;;;;6241223;22;20207;-90
2022/06/06 02:13:13;;;;;;;2.00;0.45;;;;;;;;;;6241627;23;20227;-89
2022/06/06 02:16:20;;;;;;;0.50;0.50;;;;;;;;;;6242673;22;20155;-88
2022/06/06 02:19:25;;;;;;;0.50;0.50;;;;;;;;;;6243218;23;20167;-89
2022/06/06 02:22:31;;;;;;;0.35;0.35;;;;;;;;;;6242689;23;20175;-89
2022/06/06 02:25:36;;;;;;;8.13;1.48;;;;;;;;;;6241549;23;20162;-90
2022/06/06 02:28:42;;;;;;;2.42;0.90;;;;;;;;;;6242770;22;20181;-89
2022/06/06 02:31:48;;;;;;;0.45;0.45;;;;;;;;;;6243806;22;20201;-88
2022/06/06 02:34:55;;;;;;;3.13;0.98;;;;;;;;;;6243760;22;20182;-91
2022/06/06 02:38:03;;;;;;;0.55;0.55;;;;;;;;;;6244306;23;20167;-89
2022/06/06 02:41:11;;;;;;;0.85;0.85;;;;;;;;;;6243172;22;20165;-90
2022/06/06 02:44:17;;;;;;;0.30;0.30;;;;;;;;;;6244155;22;20150;-88
2022/06/06 02:47:23;;;;;;;1.25;0.75;;;;;;;;;;6243843;22;20217;-88
2022/06/06 02:50:30;;;;;;;0.60;0.47;;;;;;;;;;6244387;22;20182;-89
2022/06/06 02:53:36;;;;;;;0.45;0.45;;;;;;;;;;6244139;23;20211;-87
2022/06/06 02:56:41;;;;;;;0.75;0.75;;;;;;;;;;6243286;23;20485;-90
2022/06/06 02:59:48;;;;;;;2.40;0.85;;;;;;;;;;6242204;23;20166;-89
2022/06/06 03:02:55;;;;;;;0.88;0.80;;;;;;;;;;6241187;22;20155;-91
2022/06/06 03:06:09;;;;;;;1.50;0.47;;;;;;;;;;6242107;22;20205;-91
2022/06/06 03:09:20;;;;;;;0.30;0.30;;;;;;;;;;6241745;23;20186;-90
2022/06/06 03:12:36;;;;;;;0.50;0.50;;;;;;;;;;6241332;23;20211;-90
2022/06/06 03:22:55;;;;;;;0.60;0.60;;;;;;;;;;6240966;23;20213;-91
2022/06/06 03:26:03;;;;;;;0.68;0.68;;;;;;;;;;6239790;22;20163;-89
2022/06/06 03:29:15;;;;;;;0.95;0.82;;;;;;;;;;6241171;22;20154;-89
2022/06/06 03:32:22;;;;;;;0.82;0.80;;;;;;;;;;6241266;22;20588;-90
2022/06/06 03:35:33;;;;;;;0.73;0.68;;;;;;;;;;6241803;23;20174;-90
2022/06/06 03:38:41;;;;;;;0.40;0.40;;;;;;;;;;6240608;23;20166;-89
2022/06/06 03:41:50;;;;;;;0.77;0.70;;;;;;;;;;6239285;23;20170;-89
2022/06/06 03:45:01;;;;;;;0.50;0.50;;;;;;;;;;6240478;23;20156;-90
2022/06/06 03:48:14;;;;;;;0.52;0.52;;;;;;;;;;6240652;22;20239;-91
2022/06/06 03:51:28;;;;;;;0.70;0.70;;;;;;;;;;6241329;23;20190;-88
2022/06/06 03:54:35;;;;;;;1.95;1.25;;;;;;;;;;6241129;23;20506;-89
2022/06/06 03:57:42;;;;;;;1.25;1.13;;;;;;;;;;6258861;22;20167;-89
2022/06/06 04:00:50;;;;;;;1.95;1.23;;;;;;;;;;6240826;22;20479;-88
2022/06/06 04:03:56;;;;;;;1.65;1.55;;;;;;;;;;6241339;23;20173;-90
2022/06/06 04:07:27;;;;;;;2.83;1.08;;;;;;;;;;6238914;23;20171;-88
2022/06/06 04:10:38;;;;;;;0.57;0.57;;;;;;;;;;6238993;23;20247;-88
2022/06/06 04:13:49;;;;;;;0.30;0.30;;;;;;;;;;6241719;22;20258;-90
2022/06/06 04:16:56;;;;;;;0.50;0.50;;;;;;;;;;6240861;22;20167;-91
2022/06/06 04:20:09;;;;;;;0.98;0.93;;;;;;;;;;6241285;23;20170;-90
2022/06/06 04:23:23;;;;;;;45.92;2.05;;;;;;;;;;6241409;23;20209;-90
2022/06/06 04:26:35;;;;;;;1.55;0.85;;;;;;;;;;6240750;22;20173;-89
2022/06/06 04:29:42;;;;;;;2.40;1.13;;;;;;;;;;6241115;22;20217;-89
2022/06/06 04:32:58;;;;;;;0.50;0.50;;;;;;;;;;6242807;22;20247;-90
2022/06/06 04:36:07;;;;;;;0.45;0.40;;;;;;;;;;6240211;23;20285;-90
2022/06/06 04:39:16;;;;;;;0.40;0.40;;;;;;;;;;6238481;23;20278;-89
2022/06/06 04:42:29;;;;;;;0.30;0.30;;;;;;;;;;6240610;22;20174;-90
2022/06/06 04:45:37;;;;;;;0.63;0.55;;;;;;;;;;6241511;22;20602;-88
2022/06/06 04:48:43;;;;;;;0.90;0.82;;;;;;;;;;6240331;23;20530;-89
2022/06/06 04:51:49;;;;;;;0.45;0.45;;;;;;;;;;6242202;23;20233;-90
2022/06/06 04:54:55;;;;;;;0.75;0.50;;;;;;;;;;6240323;23;20205;-88
2022/06/06 04:58:03;;;;;;;0.38;0.38;;;;;;;;;;6240603;22;20161;-90
2022/06/06 05:01:10;;;;;;;1.13;1.02;;;;;;;;;;6242033;22;20245;-89
2022/06/06 05:04:15;;;;;;;0.63;0.63;;;;;;;;;;6241814;23;20170;-89
2022/06/06 05:07:51;;;;;;;0.40;0.40;;;;;;;;;;6242586;23;20602;-89
2022/06/06 05:11:03;;;;;;;4.43;0.82;;;;;;;;;;6240902;22;20255;-89
2022/06/06 05:14:30;;;;;;;0.75;0.75;;;;;;;;;;6241514;22;20206;-89
2022/06/06 05:17:45;;;;;;;0.40;0.40;;;;;;;;;;6240632;22;20166;-90
2022/06/06 05:20:54;;;;;;;3.10;1.38;;;;;;;;;;6240380;23;20171;-90
2022/06/06 05:24:06;;;;;;;1.13;0.93;;;;;;;;;;6240403;22;20649;-90
2022/06/06 05:27:46;;;;;;;0.45;0.45;;;;;;;;;;6241493;22;20195;-89
2022/06/06 05:30:55;;;;;;;0.30;0.30;;;;;;;;;;6241578;23;20517;-91
2022/06/06 05:34:06;;;;;;;0.47;0.47;;;;;;;;;;6242000;23;20610;-91
2022/06/06 05:37:20;;;;;;;0.25;0.25;;;;;;;;;;6240297;22;20210;-90
2022/06/06 05:40:35;;;;;;;0.40;0.40;;;;;;;;;;6242926;23;20177;-89
2022/06/06 05:43:48;;;;;;;0.82;0.73;;;;;;;;;;6241244;22;20225;-89
2022/06/06 05:46:59;;;;;;;0.40;0.40;;;;;;;;;;6243186;23;20178;-89
2022/06/06 05:50:18;;;;;;;0.47;0.47;;;;;;;;;;6243336;23;20215;-90
2022/06/06 05:53:29;;;;;;;0.77;0.77;;;;;;;;;;6243869;22;20194;-89
2022/06/06 05:56:55;;;;;;;0.40;0.40;;;;;;;;;;6239550;23;20621;-90
2022/06/06 06:00:05;;;;;;;0.30;0.30;;;;;;;;;;6240263;23;20166;-90
2022/06/06 06:03:25;;;;;;;1.90;0.80;;;;;;;;;;6258497;23;20170;-89
2022/06/06 06:06:35;;;;;;;0.50;0.50;;;;;;;;;;6241271;22;20169;-89
2022/06/06 06:09:45;;;;;;;0.70;0.70;;;;;;;;;;6242757;23;20242;-90
2022/06/06 06:13:04;;;;;;;0.38;0.38;;;;;;;;;;6239983;23;20264;-91
2022/06/06 06:16:13;;;;;;;1.02;0.85;;;;;;;;;;6239954;23;20170;-91
2022/06/06 06:19:20;;;;;;;0.30;0.30;;;;;;;;;;6241849;22;20220;-90
2022/06/06 06:22:29;;;;;;;1.45;0.85;;;;;;;;;;6241562;22;20210;-90
2022/06/06 06:25:35;;;;;;;0.30;0.30;;;;;;;;;;6243398;23;20167;-90
2022/06/06 06:28:43;;;;;;;0.55;0.55;;;;;;;;;;6241860;23;20182;-91
2022/06/06 06:31:54;;;;;;;0.68;0.68;;;;;;;;;;6238125;23;20167;-90
2022/06/06 06:35:06;;;;;;;2.88;1.05;;;;;;;;;;6241498;22;20239;-89
2022/06/06 06:38:37;;;;;;;0.30;0.30;;;;;;;;;;6239291;22;20490;-91
2022/06/06 06:41:50;;;;;;;7.90;2.88;;;;;;;;;;6238235;23;20177;-91
2022/06/06 06:45:01;;;;;;;7.38;3.00;;;;;;;;;;6256677;23;20163;-90
2022/06/06 06:48:10;;;;;;;6.95;2.83;;;;;;;;;;6240394;22;20217;-89
2022/06/06 06:51:21;;;;;;;3.33;2.63;;;;;;;;;;6242102;22;20166;-90
2022/06/06 06:54:36;;;;;;;4.55;2.50;;;;;;;;;;6241881;23;20178;-90
2022/06/06 06:57:58;;;;;;;4.88;3.05;;;;;;;;;;6240433;23;20262;-90
2022/06/06 07:01:05;;;;;;;4.95;3.55;;;;;;;;;;6242048;22;20159;-90
2022/06/06 07:11:29;;;;;;;9.93;3.50;;;;;;;;;;6238662;23;20221;-90
2022/06/06 07:14:53;;;;;;;17.20;3.50;;;;;;;;;;6239300;22;20255;-90
2022/06/06 07:18:00;;;;;;;8.82;3.05;;;;;;;;;;6241315;23;20175;-90
2022/06/06 07:21:17;;;;;;;4.20;3.03;;;;;;;;;;6241011;23;20171;-89
2022/06/06 07:24:23;;;;;;;8.73;2.78;;;;;;;;;;6257044;23;20185;-88
2022/06/06 07:27:32;;;;;;;6.57;3.00;;;;;;;;;;6241671;22;20155;-92
2022/06/06 07:30:40;;;;;;;7.18;3.20;;;;;;;;;;6241789;22;20633;-92
2022/06/06 07:34:04;;;;;;;7.63;2.80;;;;;;;;;;6241417;23;20198;-91
2022/06/06 07:37:16;;;;;;;7.88;2.60;;;;;;;;;;6241942;23;20610;-91
2022/06/06 07:40:36;;;;;;;7.97;3.15;;;;;;;;;;6242832;22;20166;-91
2022/06/06 07:43:50;;;;;;;6.65;2.67;;;;;;;;;;6243108;22;20174;-90
2022/06/06 07:47:06;;;;;;;8.10;4.13;;;;;;;;;;6240929;23;20186;-88
2022/06/06 07:50:13;;;;;;;7.05;2.88;;;;;;;;;;6243548;23;20165;-92
2022/06/06 07:53:26;;;;;;;8.65;2.35;;;;;;;;;;6244258;23;20201;-89
2022/06/06 07:56:36;;;;;;;8.10;2.83;;;;;;;;;;6245143;22;20201;-92
2022/06/06 07:59:49;;;;;;;6.93;2.58;;;;;;;;;;6242382;23;20166;-91
2022/06/06 08:03:07;;;;;;;5.10;2.70;;;;;;;;;;6243212;23;20272;-91
2022/06/06 08:06:25;;;;;;;5.63;2.38;;;;;;;;;;6241134;23;20163;-90
2022/06/06 08:09:37;;;;;;;3.05;2.10;;;;;;;;;;6242653;22;20167;-90
2022/06/06 08:13:04;;;;;;;4.15;1.92;;;;;;;;;;6243227;23;20204;-91
2022/06/06 08:16:15;;;;;;;6.65;1.80;;;;;;;;;;6243764;23;20170;-90
2022/06/06 08:19:30;;;;;;;5.35;2.00;;;;;;;;;;6242616;23;20216;-92
2022/06/06 08:22:42;;;;;;;5.88;2.35;;;;;;;;;;6244454;23;20178;-92
2022/06/06 08:25:48;;;;;;;4.57;2.35;;;;;;;;;;6245070;23;20213;-91
2022/06/06 08:28:57;;;;;;;3.97;2.40;;;;;;;;;;6244136;23;20173;-91
2022/06/06 08:32:05;;;;;;;4.20;2.20;;;;;;;;;;6244813;22;20169;-90
2022/06/06 08:35:12;;;;;;;4.13;2.03;;;;;;;;;;6244869;23;20178;-91
2022/06/06 08:38:27;;;;;;;3.95;1.75;;;;;;;;;;6245221;22;20580;-92
2022/06/06 08:41:52;;;;;;;5.25;2.10;;;;;;;;;;6244156;23;20171;-90
2022/06/06 08:45:08;;;;;;;3.22;1.98;;;;;;;;;;6243272;23;20174;-90
2022/06/06 08:48:22;;;;;;;6.32;2.28;;;;;;;;;;6243649;22;20219;-91
2022/06/06 08:51:45;;;;;;;4.72;2.22;;;;;;;;;;6263103;22;20166;-93
2022/06/06 08:55:10;;;;;;;4.15;2.25;;;;;;;;;;6247136;23;20193;-94
2022/06/06 08:58:27;;;;;;;5.53;2.00;;;;;;;;;;6245476;22;20201;-93
2022/06/06 09:01:44;;;;;;;4.50;2.28;;;;;;;;;;6243822;22;20154;-91
2022/06/06 09:05:13;;;;;;;4.20;2.00;;;;;;;;;;6244632;23;20170;-90
2022/06/06 09:08:59;;;;;;;8.50;2.33;;;;;;;;;;6244109;22;20485;-91
2022/06/06 09:12:41;;;;;;;8.23;2.40;;;;;;;;;;6245327;22;20174;-91
2022/06/06 09:16:02;;;;;;;5.85;2.20;;;;;;;;;;6245312;23;20163;-92
2022/06/06 09:19:26;;;;;;;2.80;1.83;;;;;;;;;;6244677;22;20218;-93
2022/06/06 09:22:49;;;;;;;5.35;2.20;;;;;;;;;;6245249;22;20149;-90
2022/06/06 09:26:02;;;;;;;5.60;1.80;;;;;;;;;;6244928;22;20169;-91
2022/06/06 09:29:27;;;;;;;4.05;1.88;;;;;;;;;;6244382;22;20169;-94
2022/06/06 09:32:59;;;;;;;5.03;2.20;;;;;;;;;;6243914;22;20154;-92
2022/06/06 09:36:23;;;;;;;6.97;2.08;;;;;;;;;;6191491;22;20224;-91
2022/06/06 09:39:55;;;;;;;5.72;2.13;;;;;;;;;;6245528;23;20169;-92
2022/06/06 09:43:19;;;;;;;2.80;1.90;;;;;;;;;;6244616;23;20161;-91
2022/06/06 09:46:45;;;;;;;4.97;2.70;;;;;;;;;;6246771;22;20167;-92
2022/06/06 09:50:20;;;;;;;8.55;2.17;;;;;;;;;;6246737;23;20159;-91
2022/06/06 09:53:43;;;;;;;5.47;2.47;;;;;;;;;;6244160;22;20305;-91
2022/06/06 10:00:36;;;;;;;6.57;2.40;;;;;;;;;;6248115;22;20189;-91
2022/06/06 10:03:56;;;;;;;5.30;2.17;;;;;;;;;;6244056;23;20166;-93
2022/06/06 10:07:26;;;;;;;6.72;2.30;;;;;;;;;;6246463;22;20178;-93
2022/06/06 10:10:43;;;;;;;7.47;2.40;;;;;;;;;;6232958;22;20192;-92
2022/06/06 10:13:59;;;;;;;5.05;2.20;;;;;;;;;;6245745;23;20193;-93
2022/06/06 10:17:23;;;;;;;6.55;1.90;;;;;;;;;;6245611;23;20504;-92
2022/06/06 10:20:37;;;;;;;3.38;2.03;;;;;;;;;;6244149;22;20170;-92
2022/06/06 10:23:51;;;;;;;3.78;2.03;;;;;;;;;;6247110;22;20237;-91
2022/06/06 10:27:00;;;;;;;3.45;2.08;;;;;;;;;;6247011;23;20281;-92
2022/06/06 10:30:14;;;;;;;4.80;1.98;;;;;;;;;;6246267;23;20262;-92
2022/06/06 10:33:54;;;;;;;3.80;2.03;;;;;;;;;;6246341;22;20265;-93
2022/06/06 10:37:07;;;;;;;5.90;1.92;;;;;;;;;;6247888;23;20174;-92
2022/06/06 10:40:21;;;;;;;6.25;1.90;;;;;;;;;;6245666;22;20228;-91
2022/06/06 10:43:37;;;;;;;4.43;2.13;;;;;;;;;;6245761;22;20173;-91
2022/06/06 10:46:56;;;;;;;9.02;3.08;;;;;;;;;;6244883;22;20678;-91
2022/06/06 10:50:04;;;;;;;7.75;2.10;;;;;;;;;;6246272;22;20173;-93
2022/06/06 10:53:37;;;;;;;6.47;2.10;;;;;;;;;;6247504;23;20193;-92
2022/06/06 10:57:02;;;;;;;7.35;2.10;;;;;;;;;;6247230;22;20150;-92
2022/06/06 11:00:17;;;;;;;6.53;1.95;;;;;;;;;;6244693;22;20161;-92
2022/06/06 11:03:42;;;;;;;5.95;1.88;;;;;;;;;;6245904;23;20190;-91
2022/06/06 11:07:05;;;;;;;4.50;1.90;;;;;;;;;;6244593;23;20186;-92
2022/06/06 11:10:28;;;;;;;4.18;2.10;;;;;;;;;;6245837;22;20235;-92
2022/06/06 11:13:44;;;;;;;4.13;1.75;;;;;;;;;;6245858;23;20303;-90
2022/06/06 11:17:11;;;;;;;2.80;2.03;;;;;;;;;;6246131;23;20161;-90
2022/06/06 11:20:39;;;;;;;4.45;1.70;;;;;;;;;;6247468;22;20166;-90
2022/06/06 11:23:48;;;;;;;3.45;1.75;;;;;;;;;;6244193;22;20182;-92
2022/06/06 11:27:14;;;;;;;3.45;1.90;;;;;;;;;;6244679;22;20158;-92
2022/06/06 11:30:29;;;;;;;4.07;1.98;;;;;;;;;;6248271;23;20169;-93
2022/06/06 11:33:59;;;;;;;3.65;1.85;;;;;;;;;;6248530;22;20303;-93
2022/06/06 11:37:29;;;;;;;2.05;1.70;;;;;;;;;;6247836;22;20589;-92
2022/06/06 11:40:51;;;;;;;4.68;1.90;;;;;;;;;;6247848;23;20169;-93
2022/06/06 23:52:25;;;;;;;7.18;4.00;;;;;;;;;;6224374;22;20207;-90
2022/06/06 23:55:30;;;;;;;8.75;4.13;;;;;;;;;;6246075;22;20194;-91
2022/06/06 23:58:36;;;;;;;8.02;4.20;;;;;;;;;;6246913;22;20190;-90
